Grand Holiday — CQNH — position and weather

sailwx.info

Track history (hours):
 
Tides and Currents Weather Stations Pressure Air Temp Water Temp Dewpoint Dewpoint Depression Visibility Wind Speed Wind Dir Waves Ship Positions

Grand Holiday

Last reported at 2014-Oct-31 00:10 UTC. Time now 2014-Oct-31 03:59 UTC.
Position N 42°32' E 009°48'.

Length 222 m; draft 7.7 m.

Type: Passenger vessel. MMSI: 255803790.

Date/timePositionNaut miles runAvg speedWind from/ knotsBaromVisibWave heightAir tempDewpointWater temp
2014-Oct-31 00:10N 42°32' E 009°48'2917.3
2014-Oct-30 22:29N 43°00' E 009°38'1617.3
2014-Oct-30 21:33N 43°16' E 009°38'1817.6
2014-Oct-30 20:33N 43°33' E 009°42'1717.1
2014-Oct-30 19:33N 43°50' E 009°45'1514.6
2014-Oct-30 18:34N 44°04' E 009°51'2 2.1
2014-Oct-30 17:32N 44°06' E 009°50'0 0.0
2014-Oct-30 16:32N 44°06' E 009°50'0 0.0
2014-Oct-30 15:31N 44°06' E 009°50'0 0.0
2014-Oct-30 14:31N 44°06' E 009°50'0 0.0
2014-Oct-30 13:31N 44°06' E 009°50'0 0.0
2014-Oct-30 12:33N 44°06' E 009°50'0 0.0
2014-Oct-30 11:33N 44°06' E 009°50'0 0.0
2014-Oct-30 10:32N 44°06' E 009°50'0 0.0
2014-Oct-30 09:32N 44°06' E 009°50'0 0.0
2014-Oct-30 08:32N 44°06' E 009°50'0 0.0
2014-Oct-30 07:31N 44°06' E 009°50'0 0.0
2014-Oct-30 06:28N 44°06' E 009°50'1 1.4
2014-Oct-30 05:33N 44°05' E 009°50'8 7.7
2014-Oct-30 04:33N 43°58' E 009°55'1212.0
2014-Oct-30 03:33N 43°57' E 009°39'1211.8
2014-Oct-30 02:33N 43°59' E 009°23'1212.4
2014-Oct-30 01:33N 44°05' E 009°07'1212.3
2014-Oct-30 00:33N 44°11' E 008°53'1212.3
2014-Oct-29 23:33N 44°16' E 008°37'6 6.0
2014-Oct-29 22:32N 44°19' E 008°29'0 0.0
2014-Oct-29 21:32N 44°19' E 008°29'0 0.0
2014-Oct-29 20:28N 44°19' E 008°29'0 0.0
2014-Oct-29 19:31N 44°19' E 008°29'0 0.0
2014-Oct-29 18:30N 44°19' E 008°29'0 0.0
2014-Oct-29 17:33N 44°19' E 008°29'0 0.0
2014-Oct-29 16:23N 44°19' E 008°29'0 0.0
2014-Oct-29 15:23N 44°19' E 008°29'0 0.0
2014-Oct-29 14:32N 44°19' E 008°29'0 0.0
2014-Oct-29 13:28N 44°19' E 008°29'0 0.0
2014-Oct-29 12:28N 44°19' E 008°29'0 0.0
2014-Oct-29 11:33N 44°19' E 008°29'0 0.0
2014-Oct-29 10:30N 44°19' E 008°29'0 0.0
2014-Oct-29 09:32N 44°19' E 008°29'0 0.0
2014-Oct-29 08:32N 44°19' E 008°29'0 0.0
2014-Oct-29 07:32N 44°19' E 008°29'0 0.0
2014-Oct-29 06:31N 44°19' E 008°29'0 0.0
2014-Oct-29 05:33N 44°19' E 008°29'5 4.5
2014-Oct-29 04:32N 44°14' E 008°32'9 9.3
2014-Oct-29 03:33N 44°05' E 008°32'1110.8
2014-Oct-29 02:33N 43°55' E 008°30'1010.5
2014-Oct-29 01:33N 43°46' E 008°22'4310.0
2014-Oct-28 21:16N 43°38' E 007°23'5 6.4
2014-Oct-28 20:32N 43°42' E 007°19'0 0.0
2014-Oct-28 17:22N 43°42' E 007°19'0 0.0
2014-Oct-28 16:33N 43°42' E 007°19'0 0.0
2014-Oct-28 15:27N 43°42' E 007°19'0 0.0
2014-Oct-28 14:33N 43°42' E 007°19'0 0.0
2014-Oct-28 13:32N 43°42' E 007°19'0 0.0
2014-Oct-28 12:32N 43°42' E 007°19'0 0.0
2014-Oct-28 11:31N 43°42' E 007°19'0 0.0
2014-Oct-28 10:19N 43°42' E 007°19'0 0.1
2014-Oct-28 09:30N 43°42' E 007°19'0 0.0
2014-Oct-28 08:30N 43°42' E 007°19'0 0.0
2014-Oct-28 07:29N 43°42' E 007°19'0 0.0
2014-Oct-28 06:33N 43°42' E 007°19'5 5.2
2014-Oct-28 05:33N 43°36' E 007°18'8 8.2
2014-Oct-28 04:33N 43°28' E 007°19'1210.4
2014-Oct-28 03:22N 43°17' E 007°12'1011.3
2014-Oct-28 02:31N 43°10' E 007°03'1010.8
2014-Oct-28 01:33N 43°02' E 006°54'1110.9
2014-Oct-28 00:33N 42°59' E 006°40'1111.1
2014-Oct-27 23:33N 42°56' E 006°25'1110.7
2014-Oct-27 22:33N 42°54' E 006°11'1110.7
2014-Oct-27 21:33N 42°55' E 005°56'1110.7
2014-Oct-27 20:33N 42°57' E 005°42'1211.3
2014-Oct-27 19:32N 43°03' E 005°28'1211.6
2014-Oct-27 18:30N 43°09' E 005°14'1010.2
2014-Oct-27 17:33N 43°19' E 005°14'5 4.7
2014-Oct-27 16:31N 43°21' E 005°20'0 0.0
2014-Oct-27 15:19N 43°21' E 005°20'0 0.0
2014-Oct-27 14:30N 43°21' E 005°20'0 0.0
2014-Oct-27 13:24N 43°21' E 005°20'0 0.0
2014-Oct-27 12:29N 43°21' E 005°20'0 0.0
2014-Oct-27 11:29N 43°21' E 005°20'0 0.0
2014-Oct-27 10:22N 43°21' E 005°20'0 0.0
2014-Oct-27 09:28N 43°21' E 005°20'0 0.0
2014-Oct-27 08:03N 43°21' E 005°20'0 0.0
2014-Oct-27 07:34N 43°21' E 005°20'5 4.9
2014-Oct-27 06:33N 43°18' E 005°14'8 8.4
2014-Oct-27 05:33N 43°11' E 005°09'10712.8
2014-Oct-26 21:12N 41°48' E 003°37'913.7
2014-Oct-26 20:32N 41°43' E 003°27'1613.9
2014-Oct-26 19:24N 41°37' E 003°08'1414.6
2014-Oct-26 18:28N 41°31' E 002°51'1414.9
2014-Oct-26 17:31N 41°26' E 002°33'1713.3
2014-Oct-26 16:16N 41°20' E 002°13'3 0.3
2014-Oct-26 06:33N 41°22' E 002°11'6 6.1
2014-Oct-26 05:33N 41°20' E 002°18'9 8.7
2014-Oct-26 04:33N 41°20' E 002°30'9 8.8
2014-Oct-26 03:33N 41°20' E 002°42'1010.1
2014-Oct-26 02:33N 41°20' E 002°55'1110.8
2014-Oct-26 01:33N 41°20' E 003°09'1111.4
2014-Oct-26 00:33N 41°20' E 003°25'1111.0
2014-Oct-25 23:33N 41°20' E 003°39'1111.3
2014-Oct-25 22:33N 41°20' E 003°54'2410.6
2014-Oct-25 20:20N 41°20' E 004°26'910.2
2014-Oct-25 19:28N 41°20' E 004°38'1210.2
2014-Oct-25 18:20N 41°20' E 004°53'810.3
2014-Oct-25 17:32N 41°20' E 005°04'1210.6
2014-Oct-25 16:25N 41°20' E 005°20'1111.6
2014-Oct-25 15:28N 41°19' E 005°34'1111.3
2014-Oct-25 14:31N 41°19' E 005°49'2210.5
2014-Oct-25 12:26N 41°19' E 006°18'1311.3
2014-Oct-25 11:18N 41°19' E 006°35'1011.5
2014-Oct-25 10:27N 41°19' E 006°48'3912.1
2014-Oct-25 07:12N 41°19' E 007°40'121 3.8
2014-Oct-23 23:11N 42°34' E 009°48'1817.1
2014-Oct-23 22:06N 42°51' E 009°41'1017.1
2014-Oct-23 21:32N 43°01' E 009°38'1616.7
2014-Oct-23 20:33N 43°17' E 009°39'1716.9
2014-Oct-23 19:33N 43°34' E 009°45'1717.1
2014-Oct-23 18:33N 43°50' E 009°51'1515.1
2014-Oct-23 17:33N 44°05' E 009°50'1 1.2
2014-Oct-23 16:31N 44°06' E 009°50'0 0.0
2014-Oct-23 15:31N 44°06' E 009°50'0 0.0
2014-Oct-23 14:34N 44°06' E 009°50'0 0.0
2014-Oct-23 13:33N 44°06' E 009°50'0 0.0
2014-Oct-23 12:33N 44°06' E 009°50'0 0.0
2014-Oct-23 11:32N 44°06' E 009°50'0 0.0
2014-Oct-23 10:32N 44°06' E 009°50'0 0.0
2014-Oct-23 09:28N 44°06' E 009°50'0 0.0
2014-Oct-23 08:31N 44°06' E 009°50'0 0.0
2014-Oct-23 07:34N 44°06' E 009°50'0 0.0
2014-Oct-23 06:33N 44°06' E 009°50'0 0.0
2014-Oct-23 05:33N 44°06' E 009°50'1 1.1
2014-Oct-23 04:33N 44°05' E 009°50'7 7.1
2014-Oct-23 03:33N 43°60' E 009°56'1111.4
2014-Oct-23 02:33N 43°57' E 009°41'1211.7
2014-Oct-23 01:33N 43°58' E 009°25'1212.2
2014-Oct-23 00:33N 44°04' E 009°10'1212.1
2014-Oct-22 23:34N 44°10' E 008°55'1212.1
2014-Oct-22 22:33N 44°15' E 008°40'8 6.4
2014-Oct-22 21:16N 44°19' E 008°29'0 0.0
2014-Oct-22 20:28N 44°19' E 008°29'0 0.0
2014-Oct-22 18:33N 44°19' E 008°29'0 0.0
2014-Oct-22 15:26N 44°19' E 008°29'0 0.0
2014-Oct-22 14:25N 44°19' E 008°29'0 0.0
2014-Oct-22 13:28N 44°19' E 008°29'0 0.0
2014-Oct-22 12:16N 44°19' E 008°29'0 0.0
2014-Oct-22 11:33N 44°19' E 008°29'0 0.0
2014-Oct-22 10:15N 44°19' E 008°29'0 0.0
2014-Oct-22 09:32N 44°19' E 008°29'0 0.0
2014-Oct-22 08:14N 44°19' E 008°29'0 0.0
2014-Oct-22 05:15N 44°19' E 008°29'0 0.3
2014-Oct-22 04:33N 44°19' E 008°29'4 3.4
2014-Oct-22 03:31N 44°16' E 008°32'7 6.8
2014-Oct-22 02:30N 44°09' E 008°32'7 7.3
2014-Oct-22 01:31N 44°02' E 008°32'7 6.9
2014-Oct-22 00:33N 43°55' E 008°31'7 7.4
2014-Oct-21 23:33N 43°49' E 008°25'8 7.3
2014-Oct-21 22:30N 43°43' E 008°18'8 7.3
2014-Oct-21 21:26N 43°40' E 008°09'7 7.6
2014-Oct-21 20:32N 43°37' E 007°60'11 7.7
2014-Oct-21 19:07N 43°34' E 007°46'5 7.4
2014-Oct-21 18:27N 43°34' E 007°39'7 7.3
2014-Oct-21 17:33N 43°36' E 007°30'8 7.6
2014-Oct-21 16:33N 43°39' E 007°20'3 2.6
2014-Oct-21 15:30N 43°42' E 007°19'0 0.0
2014-Oct-21 14:29N 43°42' E 007°19'0 0.0
2014-Oct-21 13:29N 43°42' E 007°19'0 0.1
2014-Oct-21 12:22N 43°42' E 007°19'0 0.0
2014-Oct-21 11:28N 43°42' E 007°19'0 0.0
2014-Oct-21 10:21N 43°42' E 007°19'0 0.0
2014-Oct-21 09:33N 43°42' E 007°19'0 0.0
2014-Oct-21 08:33N 43°42' E 007°19'0 0.0
2014-Oct-21 07:32N 43°42' E 007°19'0 0.0
2014-Oct-21 06:32N 43°42' E 007°19'0 0.0
2014-Oct-21 05:33N 43°42' E 007°19'4 3.8
2014-Oct-21 04:33N 43°38' E 007°19'8 7.9
2014-Oct-21 03:33N 43°30' E 007°19'9 9.4
2014-Oct-21 02:33N 43°21' E 007°16'1111.3
2014-Oct-21 01:33N 43°12' E 007°06'1111.1
2014-Oct-21 00:33N 43°04' E 006°56'  
Track history (hours):
 
Tides and Currents Weather Stations Pressure Air Temp Water Temp Dewpoint Dewpoint Depression Visibility Wind Speed Wind Dir Waves Ship Positions

Grand Holiday

Last reported at 2014-Oct-31 00:10 UTC. Time now 2014-Oct-31 03:59 UTC.
Position N 42°32' E 009°48'.

Length 222 m; draft 7.7 m.

Type: Passenger vessel. MMSI: 255803790.

Date/timePositionNaut miles runAvg speedWind from/ knotsBaromVisibWave heightAir tempDewpointWater temp
2014-Oct-31 00:10N 42°32' E 009°48'2917.3
2014-Oct-30 22:29N 43°00' E 009°38'1617.3
2014-Oct-30 21:33N 43°16' E 009°38'1817.6
2014-Oct-30 20:33N 43°33' E 009°42'1717.1
2014-Oct-30 19:33N 43°50' E 009°45'1514.6
2014-Oct-30 18:34N 44°04' E 009°51'2 2.1
2014-Oct-30 17:32N 44°06' E 009°50'0 0.0
2014-Oct-30 16:32N 44°06' E 009°50'0 0.0
2014-Oct-30 15:31N 44°06' E 009°50'0 0.0
2014-Oct-30 14:31N 44°06' E 009°50'0 0.0
2014-Oct-30 13:31N 44°06' E 009°50'0 0.0
2014-Oct-30 12:33N 44°06' E 009°50'0 0.0
2014-Oct-30 11:33N 44°06' E 009°50'0 0.0
2014-Oct-30 10:32N 44°06' E 009°50'0 0.0
2014-Oct-30 09:32N 44°06' E 009°50'0 0.0
2014-Oct-30 08:32N 44°06' E 009°50'0 0.0
2014-Oct-30 07:31N 44°06' E 009°50'0 0.0
2014-Oct-30 06:28N 44°06' E 009°50'1 1.4
2014-Oct-30 05:33N 44°05' E 009°50'8 7.7
2014-Oct-30 04:33N 43°58' E 009°55'1212.0
2014-Oct-30 03:33N 43°57' E 009°39'1211.8
2014-Oct-30 02:33N 43°59' E 009°23'1212.4
2014-Oct-30 01:33N 44°05' E 009°07'1212.3
2014-Oct-30 00:33N 44°11' E 008°53'1212.3
2014-Oct-29 23:33N 44°16' E 008°37'6 6.0
2014-Oct-29 22:32N 44°19' E 008°29'0 0.0
2014-Oct-29 21:32N 44°19' E 008°29'0 0.0
2014-Oct-29 20:28N 44°19' E 008°29'0 0.0
2014-Oct-29 19:31N 44°19' E 008°29'0 0.0
2014-Oct-29 18:30N 44°19' E 008°29'0 0.0
2014-Oct-29 17:33N 44°19' E 008°29'0 0.0
2014-Oct-29 16:23N 44°19' E 008°29'0 0.0
2014-Oct-29 15:23N 44°19' E 008°29'0 0.0
2014-Oct-29 14:32N 44°19' E 008°29'0 0.0
2014-Oct-29 13:28N 44°19' E 008°29'0 0.0
2014-Oct-29 12:28N 44°19' E 008°29'0 0.0
2014-Oct-29 11:33N 44°19' E 008°29'0 0.0
2014-Oct-29 10:30N 44°19' E 008°29'0 0.0
2014-Oct-29 09:32N 44°19' E 008°29'0 0.0
2014-Oct-29 08:32N 44°19' E 008°29'0 0.0
2014-Oct-29 07:32N 44°19' E 008°29'0 0.0
2014-Oct-29 06:31N 44°19' E 008°29'0 0.0
2014-Oct-29 05:33N 44°19' E 008°29'5 4.5
2014-Oct-29 04:32N 44°14' E 008°32'9 9.3
2014-Oct-29 03:33N 44°05' E 008°32'1110.8
2014-Oct-29 02:33N 43°55' E 008°30'1010.5
2014-Oct-29 01:33N 43°46' E 008°22'4310.0
2014-Oct-28 21:16N 43°38' E 007°23'5 6.4
2014-Oct-28 20:32N 43°42' E 007°19'0 0.0
2014-Oct-28 17:22N 43°42' E 007°19'0 0.0
2014-Oct-28 16:33N 43°42' E 007°19'0 0.0
2014-Oct-28 15:27N 43°42' E 007°19'0 0.0
2014-Oct-28 14:33N 43°42' E 007°19'0 0.0
2014-Oct-28 13:32N 43°42' E 007°19'0 0.0
2014-Oct-28 12:32N 43°42' E 007°19'0 0.0
2014-Oct-28 11:31N 43°42' E 007°19'0 0.0
2014-Oct-28 10:19N 43°42' E 007°19'0 0.1
2014-Oct-28 09:30N 43°42' E 007°19'0 0.0
2014-Oct-28 08:30N 43°42' E 007°19'0 0.0
2014-Oct-28 07:29N 43°42' E 007°19'0 0.0
2014-Oct-28 06:33N 43°42' E 007°19'5 5.2
2014-Oct-28 05:33N 43°36' E 007°18'8 8.2
2014-Oct-28 04:33N 43°28' E 007°19'1210.4
2014-Oct-28 03:22N 43°17' E 007°12'1011.3
2014-Oct-28 02:31N 43°10' E 007°03'1010.8
2014-Oct-28 01:33N 43°02' E 006°54'1110.9
2014-Oct-28 00:33N 42°59' E 006°40'1111.1
2014-Oct-27 23:33N 42°56' E 006°25'1110.7
2014-Oct-27 22:33N 42°54' E 006°11'1110.7
2014-Oct-27 21:33N 42°55' E 005°56'1110.7
2014-Oct-27 20:33N 42°57' E 005°42'1211.3
2014-Oct-27 19:32N 43°03' E 005°28'1211.6
2014-Oct-27 18:30N 43°09' E 005°14'1010.2
2014-Oct-27 17:33N 43°19' E 005°14'5 4.7
2014-Oct-27 16:31N 43°21' E 005°20'0 0.0
2014-Oct-27 15:19N 43°21' E 005°20'0 0.0
2014-Oct-27 14:30N 43°21' E 005°20'0 0.0
2014-Oct-27 13:24N 43°21' E 005°20'0 0.0
2014-Oct-27 12:29N 43°21' E 005°20'0 0.0
2014-Oct-27 11:29N 43°21' E 005°20'0 0.0
2014-Oct-27 10:22N 43°21' E 005°20'0 0.0
2014-Oct-27 09:28N 43°21' E 005°20'0 0.0
2014-Oct-27 08:03N 43°21' E 005°20'0 0.0
2014-Oct-27 07:34N 43°21' E 005°20'5 4.9
2014-Oct-27 06:33N 43°18' E 005°14'8 8.4
2014-Oct-27 05:33N 43°11' E 005°09'10712.8
2014-Oct-26 21:12N 41°48' E 003°37'913.7
2014-Oct-26 20:32N 41°43' E 003°27'1613.9
2014-Oct-26 19:24N 41°37' E 003°08'1414.6
2014-Oct-26 18:28N 41°31' E 002°51'1414.9
2014-Oct-26 17:31N 41°26' E 002°33'1713.3
2014-Oct-26 16:16N 41°20' E 002°13'3 0.3
2014-Oct-26 06:33N 41°22' E 002°11'6 6.1
2014-Oct-26 05:33N 41°20' E 002°18'9 8.7
2014-Oct-26 04:33N 41°20' E 002°30'9 8.8
2014-Oct-26 03:33N 41°20' E 002°42'1010.1
2014-Oct-26 02:33N 41°20' E 002°55'1110.8
2014-Oct-26 01:33N 41°20' E 003°09'1111.4
2014-Oct-26 00:33N 41°20' E 003°25'1111.0
2014-Oct-25 23:33N 41°20' E 003°39'1111.3
2014-Oct-25 22:33N 41°20' E 003°54'2410.6
2014-Oct-25 20:20N 41°20' E 004°26'910.2
2014-Oct-25 19:28N 41°20' E 004°38'1210.2
2014-Oct-25 18:20N 41°20' E 004°53'810.3
2014-Oct-25 17:32N 41°20' E 005°04'1210.6
2014-Oct-25 16:25N 41°20' E 005°20'1111.6
2014-Oct-25 15:28N 41°19' E 005°34'1111.3
2014-Oct-25 14:31N 41°19' E 005°49'2210.5
2014-Oct-25 12:26N 41°19' E 006°18'1311.3
2014-Oct-25 11:18N 41°19' E 006°35'1011.5
2014-Oct-25 10:27N 41°19' E 006°48'3912.1
2014-Oct-25 07:12N 41°19' E 007°40'121 3.8
2014-Oct-23 23:11N 42°34' E 009°48'1817.1
2014-Oct-23 22:06N 42°51' E 009°41'1017.1
2014-Oct-23 21:32N 43°01' E 009°38'1616.7
2014-Oct-23 20:33N 43°17' E 009°39'1716.9
2014-Oct-23 19:33N 43°34' E 009°45'1717.1
2014-Oct-23 18:33N 43°50' E 009°51'1515.1
2014-Oct-23 17:33N 44°05' E 009°50'1 1.2
2014-Oct-23 16:31N 44°06' E 009°50'0 0.0
2014-Oct-23 15:31N 44°06' E 009°50'0 0.0
2014-Oct-23 14:34N 44°06' E 009°50'0 0.0
2014-Oct-23 13:33N 44°06' E 009°50'0 0.0
2014-Oct-23 12:33N 44°06' E 009°50'0 0.0
2014-Oct-23 11:32N 44°06' E 009°50'0 0.0
2014-Oct-23 10:32N 44°06' E 009°50'0 0.0
2014-Oct-23 09:28N 44°06' E 009°50'0 0.0
2014-Oct-23 08:31N 44°06' E 009°50'0 0.0
2014-Oct-23 07:34N 44°06' E 009°50'0 0.0
2014-Oct-23 06:33N 44°06' E 009°50'0 0.0
2014-Oct-23 05:33N 44°06' E 009°50'1 1.1
2014-Oct-23 04:33N 44°05' E 009°50'7 7.1
2014-Oct-23 03:33N 43°60' E 009°56'1111.4
2014-Oct-23 02:33N 43°57' E 009°41'1211.7
2014-Oct-23 01:33N 43°58' E 009°25'1212.2
2014-Oct-23 00:33N 44°04' E 009°10'1212.1
2014-Oct-22 23:34N 44°10' E 008°55'1212.1
2014-Oct-22 22:33N 44°15' E 008°40'8 6.4
2014-Oct-22 21:16N 44°19' E 008°29'0 0.0
2014-Oct-22 20:28N 44°19' E 008°29'0 0.0
2014-Oct-22 18:33N 44°19' E 008°29'0 0.0
2014-Oct-22 15:26N 44°19' E 008°29'0 0.0
2014-Oct-22 14:25N 44°19' E 008°29'0 0.0
2014-Oct-22 13:28N 44°19' E 008°29'0 0.0
2014-Oct-22 12:16N 44°19' E 008°29'0 0.0
2014-Oct-22 11:33N 44°19' E 008°29'0 0.0
2014-Oct-22 10:15N 44°19' E 008°29'0 0.0
2014-Oct-22 09:32N 44°19' E 008°29'0 0.0
2014-Oct-22 08:14N 44°19' E 008°29'0 0.0
2014-Oct-22 05:15N 44°19' E 008°29'0 0.3
2014-Oct-22 04:33N 44°19' E 008°29'4 3.4
2014-Oct-22 03:31N 44°16' E 008°32'7 6.8
2014-Oct-22 02:30N 44°09' E 008°32'7 7.3
2014-Oct-22 01:31N 44°02' E 008°32'7 6.9
2014-Oct-22 00:33N 43°55' E 008°31'7 7.4
2014-Oct-21 23:33N 43°49' E 008°25'8 7.3
2014-Oct-21 22:30N 43°43' E 008°18'8 7.3
2014-Oct-21 21:26N 43°40' E 008°09'7 7.6
2014-Oct-21 20:32N 43°37' E 007°60'11 7.7
2014-Oct-21 19:07N 43°34' E 007°46'5 7.4
2014-Oct-21 18:27N 43°34' E 007°39'7 7.3
2014-Oct-21 17:33N 43°36' E 007°30'8 7.6
2014-Oct-21 16:33N 43°39' E 007°20'3 2.6
2014-Oct-21 15:30N 43°42' E 007°19'0 0.0
2014-Oct-21 14:29N 43°42' E 007°19'0 0.0
2014-Oct-21 13:29N 43°42' E 007°19'0 0.1
2014-Oct-21 12:22N 43°42' E 007°19'0 0.0
2014-Oct-21 11:28N 43°42' E 007°19'0 0.0
2014-Oct-21 10:21N 43°42' E 007°19'0 0.0
2014-Oct-21 09:33N 43°42' E 007°19'0 0.0
2014-Oct-21 08:33N 43°42' E 007°19'0 0.0
2014-Oct-21 07:32N 43°42' E 007°19'0 0.0
2014-Oct-21 06:32N 43°42' E 007°19'0 0.0
2014-Oct-21 05:33N 43°42' E 007°19'4 3.8
2014-Oct-21 04:33N 43°38' E 007°19'8 7.9
2014-Oct-21 03:33N 43°30' E 007°19'9 9.4
2014-Oct-21 02:33N 43°21' E 007°16'1111.3
2014-Oct-21 01:33N 43°12' E 007°06'1111.1
2014-Oct-21 00:33N 43°04' E 006°56'  

Dump ship's entire track history